Terminal Aerodrome Forecast
Issued by NWS

Home | Current Version | Previous Version | Text Only | Print | Product List | Glossary On
Versions: 1 2 3 4 5 6 7 8 9 10 11 12 13 14 15 16 17 18 19 20 21 22 23 24
000
FTUS45 KFGZ 021600 AAB
TAFPGA
TAF AMD
KPGA 021636Z 0217/0312 VRB06KT 6SM -SHRA SCT004 OVC015
      TEMPO 0217/0219 17011G16KT 1SM -RA BR OVC003
     FM022200 23008KT P6SM BKN030=

USA.gov is the U.S. government's official web portal to all federal, state and local government web resources and services.